sensor_id;sensor_type;location;lat;lon;timestamp;P1;durP1;ratioP1;P2;durP2;ratioP2
3627;SDS011;1830;49.000;12.074;2022-12-10T00:02:11;65.60;;;34.87;;
3627;SDS011;1830;49.000;12.074;2022-12-10T00:04:38;52.83;;;29.67;;
3627;SDS011;1830;49.000;12.074;2022-12-10T00:07:05;51.70;;;30.10;;
3627;SDS011;1830;49.000;12.074;2022-12-10T00:09:31;48.90;;;28.50;;
3627;SDS011;1830;49.000;12.074;2022-12-10T00:11:58;51.90;;;29.00;;
3627;SDS011;1830;49.000;12.074;2022-12-10T00:14:25;56.90;;;29.73;;
3627;SDS011;1830;49.000;12.074;2022-12-10T00:16:53;55.30;;;28.80;;
3627;SDS011;1830;49.000;12.074;2022-12-10T00:19:20;49.70;;;27.63;;
3627;SDS011;1830;49.000;12.074;2022-12-10T00:21:47;50.40;;;29.37;;
3627;SDS011;1830;49.000;12.074;2022-12-10T00:24:13;52.30;;;29.07;;
3627;SDS011;1830;49.000;12.074;2022-12-10T00:26:40;42.47;;;26.03;;
3627;SDS011;1830;49.000;12.074;2022-12-10T00:29:09;45.50;;;26.43;;
3627;SDS011;1830;49.000;12.074;2022-12-10T00:31:37;54.50;;;27.13;;
3627;SDS011;1830;49.000;12.074;2022-12-10T00:34:07;52.37;;;27.80;;
3627;SDS011;1830;49.000;12.074;2022-12-10T00:36:37;49.33;;;28.77;;
3627;SDS011;1830;49.000;12.074;2022-12-10T00:39:05;52.60;;;28.87;;
3627;SDS011;1830;49.000;12.074;2022-12-10T00:41:32;45.50;;;28.80;;
3627;SDS011;1830;49.000;12.074;2022-12-10T00:43:59;49.53;;;27.80;;
3627;SDS011;1830;49.000;12.074;2022-12-10T00:46:26;44.73;;;26.13;;
3627;SDS011;1830;49.000;12.074;2022-12-10T00:48:53;52.30;;;28.90;;
3627;SDS011;1830;49.000;12.074;2022-12-10T00:51:22;54.07;;;28.90;;
3627;SDS011;1830;49.000;12.074;2022-12-10T00:53:50;46.47;;;26.70;;
3627;SDS011;1830;49.000;12.074;2022-12-10T00:56:19;54.60;;;29.47;;
3627;SDS011;1830;49.000;12.074;2022-12-10T00:58:47;50.50;;;28.37;;
3627;SDS011;1830;49.000;12.074;2022-12-10T01:01:15;51.73;;;29.13;;
3627;SDS011;1830;49.000;12.074;2022-12-10T01:03:44;46.20;;;28.07;;
3627;SDS011;1830;49.000;12.074;2022-12-10T01:06:13;55.00;;;29.00;;
3627;SDS011;1830;49.000;12.074;2022-12-10T01:08:43;52.83;;;28.30;;
3627;SDS011;1830;49.000;12.074;2022-12-10T01:11:11;46.93;;;27.73;;
3627;SDS011;1830;49.000;12.074;2022-12-10T01:13:39;52.07;;;28.70;;
3627;SDS011;1830;49.000;12.074;2022-12-10T01:16:08;50.93;;;26.53;;
3627;SDS011;1830;49.000;12.074;2022-12-10T01:18:36;48.30;;;28.50;;
3627;SDS011;1830;49.000;12.074;2022-12-10T01:21:03;44.70;;;26.87;;
3627;SDS011;1830;49.000;12.074;2022-12-10T01:23:32;47.60;;;28.90;;
3627;SDS011;1830;49.000;12.074;2022-12-10T01:26:02;56.23;;;29.97;;
3627;SDS011;1830;49.000;12.074;2022-12-10T01:28:30;48.30;;;28.00;;
3627;SDS011;1830;49.000;12.074;2022-12-10T01:31:01;55.27;;;30.30;;
3627;SDS011;1830;49.000;12.074;2022-12-10T01:33:29;52.00;;;29.13;;
3627;SDS011;1830;49.000;12.074;2022-12-10T01:36:00;53.07;;;28.20;;
3627;SDS011;1830;49.000;12.074;2022-12-10T01:38:28;48.97;;;29.40;;
3627;SDS011;1830;49.000;12.074;2022-12-10T01:40:55;50.77;;;28.07;;
3627;SDS011;1830;49.000;12.074;2022-12-10T01:43:23;52.37;;;28.50;;
3627;SDS011;1830;49.000;12.074;2022-12-10T01:45:50;49.47;;;28.13;;
3627;SDS011;1830;49.000;12.074;2022-12-10T01:48:17;52.37;;;29.50;;
3627;SDS011;1830;49.000;12.074;2022-12-10T01:50:44;52.33;;;28.37;;
3627;SDS011;1830;49.000;12.074;2022-12-10T01:53:11;52.87;;;29.03;;
3627;SDS011;1830;49.000;12.074;2022-12-10T01:55:41;50.30;;;28.30;;
3627;SDS011;1830;49.000;12.074;2022-12-10T01:58:10;56.43;;;30.93;;
3627;SDS011;1830;49.000;12.074;2022-12-10T02:00:41;56.60;;;29.00;;
3627;SDS011;1830;49.000;12.074;2022-12-10T02:03:19;52.00;;;29.57;;
3627;SDS011;1830;49.000;12.074;2022-12-10T02:05:55;52.23;;;28.73;;
3627;SDS011;1830;49.000;12.074;2022-12-10T02:08:29;52.60;;;28.70;;
3627;SDS011;1830;49.000;12.074;2022-12-10T02:11:03;64.37;;;30.73;;
3627;SDS011;1830;49.000;12.074;2022-12-10T02:13:44;56.90;;;30.93;;
3627;SDS011;1830;49.000;12.074;2022-12-10T02:16:21;58.50;;;30.70;;
3627;SDS011;1830;49.000;12.074;2022-12-10T02:18:53;55.57;;;31.03;;
3627;SDS011;1830;49.000;12.074;2022-12-10T02:21:26;53.77;;;30.57;;
3627;SDS011;1830;49.000;12.074;2022-12-10T02:23:57;56.17;;;31.13;;
3627;SDS011;1830;49.000;12.074;2022-12-10T02:26:27;59.23;;;32.07;;
3627;SDS011;1830;49.000;12.074;2022-12-10T02:29:05;57.30;;;33.17;;
3627;SDS011;1830;49.000;12.074;2022-12-10T02:31:38;54.97;;;29.30;;
3627;SDS011;1830;49.000;12.074;2022-12-10T02:34:09;58.97;;;32.07;;
3627;SDS011;1830;49.000;12.074;2022-12-10T02:36:38;52.90;;;31.07;;
3627;SDS011;1830;49.000;12.074;2022-12-10T02:39:10;58.83;;;32.30;;
3627;SDS011;1830;49.000;12.074;2022-12-10T02:41:41;57.60;;;31.60;;
3627;SDS011;1830;49.000;12.074;2022-12-10T02:44:13;61.73;;;32.67;;
3627;SDS011;1830;49.000;12.074;2022-12-10T02:46:42;53.30;;;31.30;;
3627;SDS011;1830;49.000;12.074;2022-12-10T02:49:12;60.17;;;31.37;;
3627;SDS011;1830;49.000;12.074;2022-12-10T02:51:41;61.33;;;30.53;;
3627;SDS011;1830;49.000;12.074;2022-12-10T02:57:03;61.17;;;33.40;;
3627;SDS011;1830;49.000;12.074;2022-12-10T02:59:40;72.80;;;34.97;;
3627;SDS011;1830;49.000;12.074;2022-12-10T03:02:16;62.23;;;33.70;;
3627;SDS011;1830;49.000;12.074;2022-12-10T03:04:47;62.47;;;32.90;;
3627;SDS011;1830;49.000;12.074;2022-12-10T03:07:21;63.80;;;34.03;;
3627;SDS011;1830;49.000;12.074;2022-12-10T03:09:52;68.27;;;36.20;;
3627;SDS011;1830;49.000;12.074;2022-12-10T03:12:22;69.67;;;36.03;;
3627;SDS011;1830;49.000;12.074;2022-12-10T03:14:55;67.77;;;34.07;;
3627;SDS011;1830;49.000;12.074;2022-12-10T03:17:25;61.90;;;32.70;;
3627;SDS011;1830;49.000;12.074;2022-12-10T03:19:54;66.73;;;33.70;;
3627;SDS011;1830;49.000;12.074;2022-12-10T03:22:23;67.60;;;35.80;;
3627;SDS011;1830;49.000;12.074;2022-12-10T03:24:50;58.87;;;33.53;;
3627;SDS011;1830;49.000;12.074;2022-12-10T03:27:19;67.17;;;35.00;;
3627;SDS011;1830;49.000;12.074;2022-12-10T03:29:49;66.80;;;34.00;;
3627;SDS011;1830;49.000;12.074;2022-12-10T03:32:19;68.30;;;35.30;;
3627;SDS011;1830;49.000;12.074;2022-12-10T03:34:48;63.87;;;35.53;;
3627;SDS011;1830;49.000;12.074;2022-12-10T03:37:16;63.40;;;34.47;;
3627;SDS011;1830;49.000;12.074;2022-12-10T03:39:43;66.97;;;35.43;;
3627;SDS011;1830;49.000;12.074;2022-12-10T03:42:10;61.67;;;34.90;;
3627;SDS011;1830;49.000;12.074;2022-12-10T03:44:38;67.47;;;35.13;;
3627;SDS011;1830;49.000;12.074;2022-12-10T03:47:06;68.47;;;36.13;;
3627;SDS011;1830;49.000;12.074;2022-12-10T03:49:37;68.40;;;34.77;;
3627;SDS011;1830;49.000;12.074;2022-12-10T03:52:04;72.37;;;36.77;;
3627;SDS011;1830;49.000;12.074;2022-12-10T03:54:31;68.30;;;37.30;;
3627;SDS011;1830;49.000;12.074;2022-12-10T03:56:58;67.43;;;37.23;;
3627;SDS011;1830;49.000;12.074;2022-12-10T03:59:25;72.60;;;36.17;;
3627;SDS011;1830;49.000;12.074;2022-12-10T04:01:52;75.07;;;39.37;;
3627;SDS011;1830;49.000;12.074;2022-12-10T04:04:19;68.83;;;37.30;;
3627;SDS011;1830;49.000;12.074;2022-12-10T04:06:47;72.67;;;37.80;;
3627;SDS011;1830;49.000;12.074;2022-12-10T04:09:14;71.90;;;35.77;;
3627;SDS011;1830;49.000;12.074;2022-12-10T04:11:42;72.87;;;37.97;;
3627;SDS011;1830;49.000;12.074;2022-12-10T04:14:09;73.40;;;36.00;;
3627;SDS011;1830;49.000;12.074;2022-12-10T04:16:54;70.40;;;35.83;;
3627;SDS011;1830;49.000;12.074;2022-12-10T04:19:21;76.07;;;38.60;;
3627;SDS011;1830;49.000;12.074;2022-12-10T04:21:49;69.27;;;35.70;;
3627;SDS011;1830;49.000;12.074;2022-12-10T04:24:34;71.10;;;37.13;;
3627;SDS011;1830;49.000;12.074;2022-12-10T04:27:20;81.40;;;38.40;;
3627;SDS011;1830;49.000;12.074;2022-12-10T04:29:49;73.67;;;37.73;;
3627;SDS011;1830;49.000;12.074;2022-12-10T04:32:16;68.03;;;35.43;;
3627;SDS011;1830;49.000;12.074;2022-12-10T04:34:43;79.30;;;40.70;;
3627;SDS011;1830;49.000;12.074;2022-12-10T04:37:12;81.67;;;38.83;;
3627;SDS011;1830;49.000;12.074;2022-12-10T04:39:39;69.70;;;37.47;;
3627;SDS011;1830;49.000;12.074;2022-12-10T04:42:06;69.47;;;37.10;;
3627;SDS011;1830;49.000;12.074;2022-12-10T04:44:34;76.23;;;37.30;;
3627;SDS011;1830;49.000;12.074;2022-12-10T04:47:01;78.40;;;37.90;;
3627;SDS011;1830;49.000;12.074;2022-12-10T04:49:29;78.00;;;38.37;;
3627;SDS011;1830;49.000;12.074;2022-12-10T04:51:56;69.90;;;36.20;;
3627;SDS011;1830;49.000;12.074;2022-12-10T04:54:24;72.47;;;37.23;;
3627;SDS011;1830;49.000;12.074;2022-12-10T04:56:52;84.30;;;37.33;;
3627;SDS011;1830;49.000;12.074;2022-12-10T04:59:18;76.83;;;37.47;;
3627;SDS011;1830;49.000;12.074;2022-12-10T05:01:45;75.23;;;37.97;;
3627;SDS011;1830;49.000;12.074;2022-12-10T05:04:13;76.97;;;39.40;;
3627;SDS011;1830;49.000;12.074;2022-12-10T05:06:41;73.73;;;36.37;;
3627;SDS011;1830;49.000;12.074;2022-12-10T05:09:09;83.00;;;39.30;;
3627;SDS011;1830;49.000;12.074;2022-12-10T05:11:37;78.20;;;39.73;;
3627;SDS011;1830;49.000;12.074;2022-12-10T05:14:05;71.53;;;36.80;;
3627;SDS011;1830;49.000;12.074;2022-12-10T05:16:33;79.83;;;39.87;;
3627;SDS011;1830;49.000;12.074;2022-12-10T05:19:00;78.03;;;38.20;;
3627;SDS011;1830;49.000;12.074;2022-12-10T05:21:27;75.60;;;38.70;;
3627;SDS011;1830;49.000;12.074;2022-12-10T05:24:18;83.90;;;40.03;;
3627;SDS011;1830;49.000;12.074;2022-12-10T05:26:45;78.00;;;38.43;;
3627;SDS011;1830;49.000;12.074;2022-12-10T05:29:15;77.23;;;38.40;;
3627;SDS011;1830;49.000;12.074;2022-12-10T05:31:43;79.67;;;40.47;;
3627;SDS011;1830;49.000;12.074;2022-12-10T05:34:25;81.10;;;39.50;;
3627;SDS011;1830;49.000;12.074;2022-12-10T05:36:53;85.60;;;40.70;;
3627;SDS011;1830;49.000;12.074;2022-12-10T05:39:28;78.53;;;41.03;;
3627;SDS011;1830;49.000;12.074;2022-12-10T05:44:49;87.27;;;41.00;;
3627;SDS011;1830;49.000;12.074;2022-12-10T05:47:16;82.33;;;39.67;;
3627;SDS011;1830;49.000;12.074;2022-12-10T05:49:43;91.33;;;41.50;;
3627;SDS011;1830;49.000;12.074;2022-12-10T05:52:12;82.83;;;40.60;;
3627;SDS011;1830;49.000;12.074;2022-12-10T05:54:39;75.60;;;39.87;;
3627;SDS011;1830;49.000;12.074;2022-12-10T05:57:06;83.43;;;38.60;;
3627;SDS011;1830;49.000;12.074;2022-12-10T05:59:34;85.57;;;41.03;;
3627;SDS011;1830;49.000;12.074;2022-12-10T06:02:01;81.70;;;41.23;;
3627;SDS011;1830;49.000;12.074;2022-12-10T06:04:28;87.17;;;42.23;;
3627;SDS011;1830;49.000;12.074;2022-12-10T06:06:55;82.33;;;41.80;;
3627;SDS011;1830;49.000;12.074;2022-12-10T06:09:21;82.53;;;41.57;;
3627;SDS011;1830;49.000;12.074;2022-12-10T06:11:48;84.10;;;43.37;;
3627;SDS011;1830;49.000;12.074;2022-12-10T06:14:15;81.77;;;40.33;;
3627;SDS011;1830;49.000;12.074;2022-12-10T06:16:43;85.87;;;39.03;;
3627;SDS011;1830;49.000;12.074;2022-12-10T06:19:10;83.67;;;42.53;;
3627;SDS011;1830;49.000;12.074;2022-12-10T06:21:37;94.67;;;42.70;;
3627;SDS011;1830;49.000;12.074;2022-12-10T06:24:04;82.60;;;42.13;;
3627;SDS011;1830;49.000;12.074;2022-12-10T06:26:31;99.93;;;55.90;;
3627;SDS011;1830;49.000;12.074;2022-12-10T06:28:58;84.43;;;41.20;;
3627;SDS011;1830;49.000;12.074;2022-12-10T06:31:26;82.90;;;41.57;;
3627;SDS011;1830;49.000;12.074;2022-12-10T06:33:55;89.90;;;42.47;;
3627;SDS011;1830;49.000;12.074;2022-12-10T06:36:25;86.80;;;41.57;;
3627;SDS011;1830;49.000;12.074;2022-12-10T06:38:52;87.10;;;42.57;;
3627;SDS011;1830;49.000;12.074;2022-12-10T06:41:19;92.10;;;45.17;;
3627;SDS011;1830;49.000;12.074;2022-12-10T06:43:48;81.97;;;42.47;;
3627;SDS011;1830;49.000;12.074;2022-12-10T06:46:18;89.47;;;43.67;;
3627;SDS011;1830;49.000;12.074;2022-12-10T06:48:46;92.63;;;44.63;;
3627;SDS011;1830;49.000;12.074;2022-12-10T06:51:27;99.07;;;45.33;;
3627;SDS011;1830;49.000;12.074;2022-12-10T06:53:54;89.30;;;42.10;;
3627;SDS011;1830;49.000;12.074;2022-12-10T06:56:21;103.63;;;46.30;;
3627;SDS011;1830;49.000;12.074;2022-12-10T07:01:18;97.13;;;43.17;;
3627;SDS011;1830;49.000;12.074;2022-12-10T07:03:47;87.00;;;43.33;;
3627;SDS011;1830;49.000;12.074;2022-12-10T07:06:14;106.17;;;50.00;;
3627;SDS011;1830;49.000;12.074;2022-12-10T07:08:42;110.50;;;54.30;;
3627;SDS011;1830;49.000;12.074;2022-12-10T07:11:10;103.67;;;49.90;;
3627;SDS011;1830;49.000;12.074;2022-12-10T07:13:38;97.80;;;46.93;;
3627;SDS011;1830;49.000;12.074;2022-12-10T07:16:11;89.20;;;45.80;;
3627;SDS011;1830;49.000;12.074;2022-12-10T07:18:38;88.43;;;42.87;;
3627;SDS011;1830;49.000;12.074;2022-12-10T07:21:16;85.13;;;40.50;;
3627;SDS011;1830;49.000;12.074;2022-12-10T07:23:46;90.30;;;46.83;;
3627;SDS011;1830;49.000;12.074;2022-12-10T07:26:13;86.77;;;44.40;;
3627;SDS011;1830;49.000;12.074;2022-12-10T07:28:40;90.80;;;44.10;;
3627;SDS011;1830;49.000;12.074;2022-12-10T07:31:07;90.80;;;44.63;;
3627;SDS011;1830;49.000;12.074;2022-12-10T07:33:35;98.47;;;44.80;;
3627;SDS011;1830;49.000;12.074;2022-12-10T07:36:03;92.10;;;44.97;;
3627;SDS011;1830;49.000;12.074;2022-12-10T07:38:30;89.73;;;42.67;;
3627;SDS011;1830;49.000;12.074;2022-12-10T07:41:01;95.43;;;42.77;;
3627;SDS011;1830;49.000;12.074;2022-12-10T07:43:29;93.47;;;43.20;;
3627;SDS011;1830;49.000;12.074;2022-12-10T07:45:56;93.93;;;42.70;;
3627;SDS011;1830;49.000;12.074;2022-12-10T07:48:30;94.07;;;44.87;;
3627;SDS011;1830;49.000;12.074;2022-12-10T07:50:57;89.80;;;42.60;;
3627;SDS011;1830;49.000;12.074;2022-12-10T07:53:24;90.10;;;44.50;;
3627;SDS011;1830;49.000;12.074;2022-12-10T07:55:51;91.17;;;44.00;;
3627;SDS011;1830;49.000;12.074;2022-12-10T08:04:45;95.50;;;43.87;;
3627;SDS011;1830;49.000;12.074;2022-12-10T08:07:18;97.77;;;43.03;;
3627;SDS011;1830;49.000;12.074;2022-12-10T08:10:01;92.00;;;44.80;;
3627;SDS011;1830;49.000;12.074;2022-12-10T08:12:42;90.63;;;44.97;;
3627;SDS011;1830;49.000;12.074;2022-12-10T08:15:32;99.03;;;48.40;;
3627;SDS011;1830;49.000;12.074;2022-12-10T08:17:59;136.53;;;60.67;;
3627;SDS011;1830;49.000;12.074;2022-12-10T08:20:30;104.00;;;42.70;;
3627;SDS011;1830;49.000;12.074;2022-12-10T08:23:04;104.23;;;48.37;;
3627;SDS011;1830;49.000;12.074;2022-12-10T08:25:31;99.83;;;47.73;;
3627;SDS011;1830;49.000;12.074;2022-12-10T08:27:58;93.33;;;45.80;;
3627;SDS011;1830;49.000;12.074;2022-12-10T08:30:27;109.43;;;50.17;;
3627;SDS011;1830;49.000;12.074;2022-12-10T08:32:56;173.10;;;73.27;;
3627;SDS011;1830;49.000;12.074;2022-12-10T08:35:22;92.57;;;42.60;;
3627;SDS011;1830;49.000;12.074;2022-12-10T08:37:49;117.60;;;52.40;;
3627;SDS011;1830;49.000;12.074;2022-12-10T08:40:19;99.10;;;46.20;;
3627;SDS011;1830;49.000;12.074;2022-12-10T08:42:46;86.67;;;44.80;;
3627;SDS011;1830;49.000;12.074;2022-12-10T08:45:13;105.10;;;49.23;;
3627;SDS011;1830;49.000;12.074;2022-12-10T08:47:40;97.33;;;46.63;;
3627;SDS011;1830;49.000;12.074;2022-12-10T08:50:09;85.00;;;41.93;;
3627;SDS011;1830;49.000;12.074;2022-12-10T08:52:36;80.80;;;39.50;;
3627;SDS011;1830;49.000;12.074;2022-12-10T08:55:03;84.40;;;42.27;;
3627;SDS011;1830;49.000;12.074;2022-12-10T08:57:30;100.00;;;47.30;;
3627;SDS011;1830;49.000;12.074;2022-12-10T08:59:57;86.50;;;45.50;;
3627;SDS011;1830;49.000;12.074;2022-12-10T09:02:23;87.87;;;44.10;;
3627;SDS011;1830;49.000;12.074;2022-12-10T09:04:50;92.90;;;43.47;;
3627;SDS011;1830;49.000;12.074;2022-12-10T09:07:19;86.40;;;42.13;;
3627;SDS011;1830;49.000;12.074;2022-12-10T09:09:46;82.93;;;40.97;;
3627;SDS011;1830;49.000;12.074;2022-12-10T09:12:19;89.80;;;47.13;;
3627;SDS011;1830;49.000;12.074;2022-12-10T09:14:46;88.57;;;44.43;;
3627;SDS011;1830;49.000;12.074;2022-12-10T09:17:12;80.70;;;40.83;;
3627;SDS011;1830;49.000;12.074;2022-12-10T09:19:45;82.70;;;42.00;;
3627;SDS011;1830;49.000;12.074;2022-12-10T09:22:12;86.90;;;42.77;;
3627;SDS011;1830;49.000;12.074;2022-12-10T09:24:41;87.07;;;39.33;;
3627;SDS011;1830;49.000;12.074;2022-12-10T09:27:07;86.97;;;42.83;;
3627;SDS011;1830;49.000;12.074;2022-12-10T09:29:34;84.23;;;42.27;;
3627;SDS011;1830;49.000;12.074;2022-12-10T09:32:01;87.30;;;41.33;;
3627;SDS011;1830;49.000;12.074;2022-12-10T09:34:28;83.90;;;39.77;;
3627;SDS011;1830;49.000;12.074;2022-12-10T09:36:55;84.43;;;42.60;;
3627;SDS011;1830;49.000;12.074;2022-12-10T09:39:24;81.93;;;41.47;;
3627;SDS011;1830;49.000;12.074;2022-12-10T09:42:09;92.67;;;49.80;;
3627;SDS011;1830;49.000;12.074;2022-12-10T09:44:47;85.13;;;43.00;;
3627;SDS011;1830;49.000;12.074;2022-12-10T09:47:30;79.33;;;40.57;;
3627;SDS011;1830;49.000;12.074;2022-12-10T09:50:11;88.50;;;39.50;;
3627;SDS011;1830;49.000;12.074;2022-12-10T09:52:45;81.87;;;40.57;;
3627;SDS011;1830;49.000;12.074;2022-12-10T09:55:15;76.53;;;39.37;;
3627;SDS011;1830;49.000;12.074;2022-12-10T09:57:45;84.00;;;40.50;;
3627;SDS011;1830;49.000;12.074;2022-12-10T10:03:13;74.63;;;37.67;;
3627;SDS011;1830;49.000;12.074;2022-12-10T10:05:41;84.03;;;36.53;;
3627;SDS011;1830;49.000;12.074;2022-12-10T10:08:12;85.60;;;42.27;;
3627;SDS011;1830;49.000;12.074;2022-12-10T10:10:41;74.70;;;37.93;;
3627;SDS011;1830;49.000;12.074;2022-12-10T10:13:28;76.37;;;38.37;;
3627;SDS011;1830;49.000;12.074;2022-12-10T10:16:00;70.83;;;38.07;;
3627;SDS011;1830;49.000;12.074;2022-12-10T10:18:48;76.30;;;38.00;;
3627;SDS011;1830;49.000;12.074;2022-12-10T10:21:21;70.53;;;37.67;;
3627;SDS011;1830;49.000;12.074;2022-12-10T10:23:50;75.80;;;37.40;;
3627;SDS011;1830;49.000;12.074;2022-12-10T10:26:17;73.60;;;36.57;;
3627;SDS011;1830;49.000;12.074;2022-12-10T10:28:45;72.90;;;38.57;;
3627;SDS011;1830;49.000;12.074;2022-12-10T10:31:18;79.10;;;38.80;;
3627;SDS011;1830;49.000;12.074;2022-12-10T10:33:48;77.93;;;37.80;;
3627;SDS011;1830;49.000;12.074;2022-12-10T10:36:22;75.67;;;39.37;;
3627;SDS011;1830;49.000;12.074;2022-12-10T10:38:50;83.13;;;39.10;;
3627;SDS011;1830;49.000;12.074;2022-12-10T10:41:17;100.57;;;44.47;;
3627;SDS011;1830;49.000;12.074;2022-12-10T10:43:46;88.63;;;42.20;;
3627;SDS011;1830;49.000;12.074;2022-12-10T10:46:20;76.13;;;39.10;;
3627;SDS011;1830;49.000;12.074;2022-12-10T10:48:48;75.90;;;39.83;;
3627;SDS011;1830;49.000;12.074;2022-12-10T10:51:17;78.83;;;37.90;;
3627;SDS011;1830;49.000;12.074;2022-12-10T10:53:48;76.87;;;38.53;;
3627;SDS011;1830;49.000;12.074;2022-12-10T10:56:17;78.73;;;38.60;;
3627;SDS011;1830;49.000;12.074;2022-12-10T10:58:52;116.00;;;53.80;;
3627;SDS011;1830;49.000;12.074;2022-12-10T11:01:21;79.47;;;41.17;;
3627;SDS011;1830;49.000;12.074;2022-12-10T11:03:53;77.00;;;40.10;;
3627;SDS011;1830;49.000;12.074;2022-12-10T11:06:21;84.93;;;41.77;;
3627;SDS011;1830;49.000;12.074;2022-12-10T11:08:49;75.30;;;40.90;;
3627;SDS011;1830;49.000;12.074;2022-12-10T11:11:20;89.47;;;41.10;;
3627;SDS011;1830;49.000;12.074;2022-12-10T11:13:52;81.53;;;40.77;;
3627;SDS011;1830;49.000;12.074;2022-12-10T11:16:21;74.83;;;39.07;;
3627;SDS011;1830;49.000;12.074;2022-12-10T11:18:54;74.90;;;38.70;;
3627;SDS011;1830;49.000;12.074;2022-12-10T11:21:27;71.30;;;37.67;;
3627;SDS011;1830;49.000;12.074;2022-12-10T11:23:55;75.27;;;38.77;;
3627;SDS011;1830;49.000;12.074;2022-12-10T11:29:31;73.97;;;38.50;;
3627;SDS011;1830;49.000;12.074;2022-12-10T11:32:24;75.93;;;40.13;;
3627;SDS011;1830;49.000;12.074;2022-12-10T11:35:07;80.30;;;42.37;;
3627;SDS011;1830;49.000;12.074;2022-12-10T11:37:39;77.00;;;38.80;;
3627;SDS011;1830;49.000;12.074;2022-12-10T11:40:24;71.90;;;38.73;;
3627;SDS011;1830;49.000;12.074;2022-12-10T11:43:04;74.10;;;39.50;;
3627;SDS011;1830;49.000;12.074;2022-12-10T11:45:47;102.50;;;52.00;;
3627;SDS011;1830;49.000;12.074;2022-12-10T11:48:29;87.60;;;45.20;;
3627;SDS011;1830;49.000;12.074;2022-12-10T11:51:06;76.23;;;39.20;;
3627;SDS011;1830;49.000;12.074;2022-12-10T11:53:41;114.10;;;52.70;;
3627;SDS011;1830;49.000;12.074;2022-12-10T11:56:18;83.83;;;42.67;;
3627;SDS011;1830;49.000;12.074;2022-12-10T11:58:54;76.30;;;40.53;;
3627;SDS011;1830;49.000;12.074;2022-12-10T12:01:46;78.90;;;41.50;;
3627;SDS011;1830;49.000;12.074;2022-12-10T12:04:30;76.83;;;38.20;;
3627;SDS011;1830;49.000;12.074;2022-12-10T12:07:23;84.07;;;44.30;;
3627;SDS011;1830;49.000;12.074;2022-12-10T12:12:51;72.93;;;40.17;;
3627;SDS011;1830;49.000;12.074;2022-12-10T12:15:25;84.87;;;46.07;;
3627;SDS011;1830;49.000;12.074;2022-12-10T12:17:59;76.20;;;41.40;;
3627;SDS011;1830;49.000;12.074;2022-12-10T12:20:31;99.90;;;51.20;;
3627;SDS011;1830;49.000;12.074;2022-12-10T12:23:01;80.13;;;40.97;;
3627;SDS011;1830;49.000;12.074;2022-12-10T12:25:37;109.00;;;56.43;;
3627;SDS011;1830;49.000;12.074;2022-12-10T12:28:10;82.00;;;42.93;;
3627;SDS011;1830;49.000;12.074;2022-12-10T12:30:40;79.37;;;41.20;;
3627;SDS011;1830;49.000;12.074;2022-12-10T12:33:11;72.17;;;38.17;;
3627;SDS011;1830;49.000;12.074;2022-12-10T12:35:51;65.23;;;36.30;;
3627;SDS011;1830;49.000;12.074;2022-12-10T12:38:26;66.43;;;35.50;;
3627;SDS011;1830;49.000;12.074;2022-12-10T12:40:56;74.97;;;39.23;;
3627;SDS011;1830;49.000;12.074;2022-12-10T12:43:31;77.60;;;39.53;;
3627;SDS011;1830;49.000;12.074;2022-12-10T12:46:09;84.00;;;38.40;;
3627;SDS011;1830;49.000;12.074;2022-12-10T12:48:44;72.00;;;38.17;;
3627;SDS011;1830;49.000;12.074;2022-12-10T12:51:19;71.43;;;36.97;;
3627;SDS011;1830;49.000;12.074;2022-12-10T12:53:50;66.33;;;34.90;;
3627;SDS011;1830;49.000;12.074;2022-12-10T12:56:20;59.90;;;32.43;;
3627;SDS011;1830;49.000;12.074;2022-12-10T12:58:55;64.70;;;34.00;;
3627;SDS011;1830;49.000;12.074;2022-12-10T13:01:34;66.53;;;35.90;;
3627;SDS011;1830;49.000;12.074;2022-12-10T13:04:05;64.13;;;34.00;;
3627;SDS011;1830;49.000;12.074;2022-12-10T13:06:33;64.37;;;36.73;;
3627;SDS011;1830;49.000;12.074;2022-12-10T13:09:23;68.53;;;34.70;;
3627;SDS011;1830;49.000;12.074;2022-12-10T13:15:01;57.87;;;32.93;;
3627;SDS011;1830;49.000;12.074;2022-12-10T13:17:39;66.10;;;34.90;;
3627;SDS011;1830;49.000;12.074;2022-12-10T13:20:31;69.50;;;34.47;;
3627;SDS011;1830;49.000;12.074;2022-12-10T13:23:00;63.53;;;34.70;;
3627;SDS011;1830;49.000;12.074;2022-12-10T13:25:42;54.13;;;31.57;;
3627;SDS011;1830;49.000;12.074;2022-12-10T13:28:28;55.70;;;31.40;;
3627;SDS011;1830;49.000;12.074;2022-12-10T13:31:07;54.60;;;31.00;;
3627;SDS011;1830;49.000;12.074;2022-12-10T13:33:47;53.57;;;28.70;;
3627;SDS011;1830;49.000;12.074;2022-12-10T13:36:23;54.10;;;30.37;;
3627;SDS011;1830;49.000;12.074;2022-12-10T13:38:58;48.37;;;27.70;;
3627;SDS011;1830;49.000;12.074;2022-12-10T13:41:39;71.73;;;27.70;;
3627;SDS011;1830;49.000;12.074;2022-12-10T13:44:31;55.70;;;28.77;;
3627;SDS011;1830;49.000;12.074;2022-12-10T13:47:04;50.70;;;27.40;;
3627;SDS011;1830;49.000;12.074;2022-12-10T13:49:48;54.10;;;28.37;;
3627;SDS011;1830;49.000;12.074;2022-12-10T13:52:21;54.13;;;30.43;;
3627;SDS011;1830;49.000;12.074;2022-12-10T13:57:53;51.17;;;29.20;;
3627;SDS011;1830;49.000;12.074;2022-12-10T14:00:31;58.25;;;33.85;;
3627;SDS011;1830;49.000;12.074;2022-12-10T14:03:09;275.57;;;40.17;;
3627;SDS011;1830;49.000;12.074;2022-12-10T14:06:03;58.60;;;30.43;;
3627;SDS011;1830;49.000;12.074;2022-12-10T14:08:41;55.13;;;32.80;;
3627;SDS011;1830;49.000;12.074;2022-12-10T14:11:20;54.47;;;31.58;;
3627;SDS011;1830;49.000;12.074;2022-12-10T14:13:51;58.53;;;32.70;;
3627;SDS011;1830;49.000;12.074;2022-12-10T14:16:21;66.43;;;33.63;;
3627;SDS011;1830;49.000;12.074;2022-12-10T14:18:51;64.43;;;36.17;;
3627;SDS011;1830;49.000;12.074;2022-12-10T14:21:21;58.53;;;32.30;;
3627;SDS011;1830;49.000;12.074;2022-12-10T14:23:52;55.93;;;31.97;;
3627;SDS011;1830;49.000;12.074;2022-12-10T14:26:20;57.30;;;32.73;;
3627;SDS011;1830;49.000;12.074;2022-12-10T14:28:54;47.30;;;28.37;;
3627;SDS011;1830;49.000;12.074;2022-12-10T14:31:24;62.00;;;31.77;;
3627;SDS011;1830;49.000;12.074;2022-12-10T14:33:54;51.60;;;31.03;;
3627;SDS011;1830;49.000;12.074;2022-12-10T14:36:28;54.77;;;29.20;;
3627;SDS011;1830;49.000;12.074;2022-12-10T14:38:58;63.23;;;33.53;;
3627;SDS011;1830;49.000;12.074;2022-12-10T14:41:26;58.40;;;32.77;;
3627;SDS011;1830;49.000;12.074;2022-12-10T14:43:56;69.67;;;40.07;;
3627;SDS011;1830;49.000;12.074;2022-12-10T14:46:28;60.57;;;32.90;;
3627;SDS011;1830;49.000;12.074;2022-12-10T14:48:57;61.67;;;33.10;;
3627;SDS011;1830;49.000;12.074;2022-12-10T14:51:25;56.43;;;32.73;;
3627;SDS011;1830;49.000;12.074;2022-12-10T14:53:58;51.23;;;29.40;;
3627;SDS011;1830;49.000;12.074;2022-12-10T14:56:26;50.40;;;27.87;;
3627;SDS011;1830;49.000;12.074;2022-12-10T14:58:57;54.73;;;29.70;;
3627;SDS011;1830;49.000;12.074;2022-12-10T15:01:30;47.67;;;28.60;;
3627;SDS011;1830;49.000;12.074;2022-12-10T15:03:59;53.60;;;29.77;;
3627;SDS011;1830;49.000;12.074;2022-12-10T15:06:28;44.83;;;27.67;;
3627;SDS011;1830;49.000;12.074;2022-12-10T15:09:02;51.20;;;29.60;;
3627;SDS011;1830;49.000;12.074;2022-12-10T15:11:30;64.20;;;33.30;;
3627;SDS011;1830;49.000;12.074;2022-12-10T15:13:58;89.80;;;44.63;;
3627;SDS011;1830;49.000;12.074;2022-12-10T15:16:28;64.17;;;34.77;;
3627;SDS011;1830;49.000;12.074;2022-12-10T15:19:06;60.70;;;33.80;;
3627;SDS011;1830;49.000;12.074;2022-12-10T15:21:40;55.40;;;30.90;;
3627;SDS011;1830;49.000;12.074;2022-12-10T15:24:13;58.20;;;31.20;;
3627;SDS011;1830;49.000;12.074;2022-12-10T15:26:43;61.50;;;34.80;;